Accueil
METAR-TAF:

METAR-TAF

Aéroports :

Bergame, Italie

Aéroport de Bergame-Orio al Serio

latitude: 45-40N, longitude: 009-42E, altitude: 238 m

Observation

Le bulletin a été fait il y a 27 minutes, à 08:50 UTC
Vent 4 kt de sud, variant entre est/sud-est et sud-ouest
Température 27°C
Humidité 54%
Pression 1014 hPa
Visibilité 10 km ou plus
Quelques nuages à une hauteur de 6000 ft

METAR: LIME 190850Z 18004KT 120V230 9999 FEW060 27/17 Q1014 NOSIG

Heure: 11:17 (09:17 UTC)

Prévision

Le bulletin a été fait il y a 4 heures et 17 minutes, à 05:00 UTC
Prévision valable du 19 à 06 UTC au 20 à 06 UTC
Vent 5 kt de direction variable
Visibilité 10 km ou plus
Nuages épars à une hauteur de 6000 ft
Temporairement
du 19 à 12 UTC au 19 à 24 UTC
orage, pluie

TAF: LIME 190500Z 1906/2006 VRB05KT 9999 SCT060 TEMPO 1912/1924 TSRA

Observations et prévisions météorologiques de plus de 4000 aéroports (messages METAR et TAF).

Les stations disponibles sont représentées par des disques jaunes et rouges sur la carte.

Passer la souris dessus pour voir le nom de la station.

Cliquer dessus pour voir les observations et prévisions météorologiques.

Pour changer de carte: cliquez sur les boutons verts avec une croix noire pour zoomer, sur le bouton vert avec un tiret pour effectuer un zoom arrière, ou sur les flèches vertes pour les cartes adjacentes.


METAR-TAF: